< < Back
Terminal Aerodrome Forecast


Current Version              Previous Versions:   1  2  3  4  5  6  7  8  9  

Terminal Aerodrome Forecast

843
FTUS42 KGSP 291700
TAFGSP
TAF
KGSP 291728Z 2918/3018 28005KT P6SM BKN050
     FM300100 01005KT P6SM SCT050=

Latest METAR

218
SAUS70 KWBC 301300 RRD
MTRGSP
METAR KGSP 301253Z 03009KT 10SM CLR 19/12 A3008 RMK AO2 SLP175
T01940117


USA.gov is the U.S. government's official web portal to all federal, state and local government web resources and services.